createdAt,value
2019-02-05T00:06:01.024Z,-3.60
2019-02-05T00:11:06.618Z,-3.50
2019-02-05T00:16:12.181Z,-3.50
2019-02-05T00:26:22.072Z,-3.70
2019-02-05T00:31:27.358Z,-3.80
2019-02-05T00:36:33.456Z,-3.80
2019-02-05T00:41:38.756Z,-3.90
2019-02-05T00:51:48.662Z,-3.90
2019-02-05T00:56:53.957Z,-4.10
2019-02-05T01:02:00.048Z,-4.10
2019-02-05T01:07:05.567Z,-4.00
2019-02-05T01:12:11.471Z,-4.10
2019-02-05T01:22:22.776Z,-4.00
2019-02-05T01:27:28.107Z,-4.00
2019-02-05T01:32:33.383Z,-4.10
2019-02-05T01:37:39.059Z,-4.20
2019-02-05T01:42:44.348Z,-4.30
2019-02-05T01:47:49.754Z,-4.20
2019-02-05T01:52:55.151Z,-4.30
2019-02-05T01:58:00.747Z,-4.30
2019-02-05T02:03:06.719Z,-4.30
2019-02-05T02:08:12.107Z,-4.20
2019-02-05T02:13:17.412Z,-4.30
2019-02-05T02:23:27.312Z,-4.30
2019-02-05T02:28:32.599Z,-4.30
2019-02-05T02:38:42.803Z,-4.50
2019-02-05T02:43:48.103Z,-4.40
2019-02-05T02:48:53.380Z,-4.50
2019-02-05T02:59:03.286Z,-4.60
2019-02-05T03:04:08.574Z,-4.50
2019-02-05T03:09:14.256Z,-4.60
2019-02-05T03:14:19.552Z,-4.40
2019-02-05T03:19:24.844Z,-4.30
2019-02-05T03:24:30.201Z,-4.30
2019-02-05T03:34:40.127Z,-4.40
2019-02-05T03:39:45.547Z,-4.40
2019-02-05T03:44:50.879Z,-4.40
2019-02-05T03:55:53.276Z,-4.60
2019-02-05T04:01:45.835Z,-4.60
2019-02-05T04:07:31.859Z,-4.60
2019-02-05T04:13:16.221Z,-4.60
2019-02-05T04:19:10.646Z,-4.60
2019-02-05T04:35:53.650Z,-4.70
2019-02-05T04:46:58.303Z,-4.80
2019-02-05T05:08:52.359Z,-4.90
2019-02-05T05:19:02.718Z,-5.00
2019-02-05T05:24:09.823Z,-4.90
2019-02-05T05:29:15.165Z,-5.00
2019-02-05T05:34:20.495Z,-5.00
2019-02-05T05:39:25.865Z,-5.10
2019-02-05T05:44:31.223Z,-5.20
2019-02-05T05:54:41.624Z,-5.20
2019-02-05T05:59:46.978Z,-5.20
2019-02-05T06:04:52.302Z,-5.30
2019-02-05T06:09:57.624Z,-5.30
2019-02-05T06:15:03.255Z,-5.30
2019-02-05T06:20:11.892Z,-5.40
2019-02-05T06:35:26.807Z,-5.40
2019-02-05T06:40:32.232Z,-5.40
2019-02-05T06:50:42.211Z,-5.40
2019-02-05T07:00:52.219Z,-5.30
2019-02-05T07:05:57.549Z,-5.30
2019-02-05T07:11:02.884Z,-5.30
2019-02-05T07:16:09.295Z,-5.40
2019-02-05T07:21:14.623Z,-5.30
2019-02-05T07:26:19.950Z,-5.40
2019-02-05T07:31:25.295Z,-5.40
2019-02-05T07:41:36.000Z,-5.30
2019-02-05T07:46:41.385Z,-5.40
2019-02-05T07:56:51.660Z,-5.30
2019-02-05T08:07:01.633Z,-5.20
2019-02-05T08:17:11.767Z,-5.20
2019-02-05T08:22:17.104Z,-5.30
2019-02-05T08:27:22.447Z,-5.20
2019-02-05T08:37:32.795Z,-5.00
2019-02-05T08:47:42.756Z,-4.80
2019-02-05T08:52:48.087Z,-4.70
2019-02-05T08:57:54.359Z,-4.70
2019-02-05T09:02:59.828Z,-4.90
2019-02-05T09:08:05.323Z,-4.90
2019-02-05T09:18:15.364Z,-4.80
2019-02-05T09:28:25.300Z,-4.50
2019-02-05T09:58:57.155Z,-4.30
2019-02-05T10:09:09.596Z,-4.60
2019-02-05T10:24:25.242Z,-4.20
2019-02-05T10:49:51.088Z,-4.00
2019-02-05T11:10:15.253Z,-4.10
2019-02-05T11:35:47.143Z,-3.40
2019-02-05T11:40:52.875Z,-3.50
2019-02-05T11:45:58.566Z,-3.40
2019-02-05T11:51:04.015Z,-3.50
2019-02-05T12:01:24.154Z,-3.30
2019-02-05T12:06:29.487Z,-3.40
2019-02-05T12:11:35.071Z,-3.20
2019-02-05T12:16:41.197Z,-3.20
2019-02-05T12:21:46.830Z,-3.10
2019-02-05T12:26:52.201Z,-3.00
2019-02-05T12:31:57.692Z,-3.00
2019-02-05T12:52:17.675Z,-3.20
2019-02-05T13:07:32.359Z,-3.30
2019-02-05T13:12:37.699Z,-3.20
2019-02-05T13:17:44.106Z,-3.20
2019-02-05T13:22:49.539Z,-3.10
2019-02-05T13:33:00.010Z,-3.10
2019-02-05T13:38:06.952Z,-3.10
2019-02-05T13:43:13.122Z,-3.00
2019-02-05T13:48:18.814Z,-3.00
2019-02-05T13:53:24.439Z,-3.00
2019-02-05T13:58:30.431Z,-2.90
2019-02-05T14:03:35.860Z,-2.90
2019-02-05T14:08:41.716Z,-2.80
2019-02-05T14:13:47.439Z,-2.80
2019-02-05T14:18:55.492Z,-2.80
2019-02-05T14:23:59.962Z,-2.80
2019-02-05T14:29:05.639Z,-2.80
2019-02-05T14:34:11.132Z,-2.80
2019-02-05T14:39:16.785Z,-2.80
2019-02-05T14:44:22.304Z,-2.80
2019-02-05T14:49:28.358Z,-2.80
2019-02-05T14:54:33.877Z,-2.80
2019-02-05T14:59:39.539Z,-2.70
2019-02-05T15:04:45.111Z,-2.80
2019-02-05T15:09:50.723Z,-2.80
2019-02-05T15:14:57.191Z,-2.80
2019-02-05T15:20:02.704Z,-2.80
2019-02-05T15:25:09.353Z,-2.80
2019-02-05T15:30:30.915Z,-2.80
2019-02-05T15:35:36.346Z,-2.80
2019-02-05T15:40:41.763Z,-2.70
2019-02-05T15:45:47.298Z,-2.70
2019-02-05T15:50:52.706Z,-2.70
2019-02-05T15:55:58.491Z,-2.70
2019-02-05T16:01:04.232Z,-2.70
2019-02-05T16:06:09.552Z,-2.70
2019-02-05T16:11:14.947Z,-2.70
2019-02-05T16:16:21.263Z,-2.70
2019-02-05T16:21:27.168Z,-2.70
2019-02-05T16:26:33.623Z,-2.70
2019-02-05T16:31:40.373Z,-2.60
2019-02-05T16:36:48.575Z,-2.60
2019-02-05T16:41:53.246Z,-2.60
2019-02-05T16:46:58.970Z,-2.60
2019-02-05T16:52:05.079Z,-2.60
2019-02-05T16:57:11.079Z,-2.70
2019-02-05T17:02:28.375Z,-2.70
2019-02-05T17:07:25.089Z,-2.70
2019-02-05T17:12:30.801Z,-2.70
2019-02-05T17:17:36.995Z,-2.70
2019-02-05T17:22:42.512Z,-2.60
2019-02-05T17:27:49.442Z,-2.70
2019-02-05T17:32:54.864Z,-2.70
2019-02-05T17:43:07.189Z,-2.60
2019-02-05T17:48:15.791Z,-2.60
2019-02-05T17:53:21.701Z,-2.60
2019-02-05T18:08:39.263Z,-2.70
2019-02-05T18:18:50.443Z,-2.70
2019-02-05T18:29:01.591Z,-2.80
2019-02-05T18:34:08.011Z,-2.80
2019-02-05T18:39:14.771Z,-2.80
2019-02-05T18:44:20.990Z,-2.70
2019-02-05T18:49:27.464Z,-2.70
2019-02-05T18:54:34.099Z,-2.70
2019-02-05T18:59:40.436Z,-2.70
2019-02-05T19:09:54.256Z,-2.70
2019-02-05T19:15:00.461Z,-2.80
2019-02-05T19:20:08.787Z,-2.80
2019-02-05T19:30:40.947Z,-2.80
2019-02-05T19:35:47.723Z,-2.80
2019-02-05T20:01:45.026Z,-2.90
2019-02-05T20:11:57.226Z,-1.50
2019-02-05T20:17:03.827Z,-2.90
2019-02-05T20:22:10.223Z,-2.90
2019-02-05T20:32:23.288Z,-2.90
2019-02-05T20:37:29.691Z,-2.80
2019-02-05T21:02:58.963Z,-2.80
2019-02-05T21:08:04.875Z,-2.80
2019-02-05T21:13:11.059Z,-2.80
2019-02-05T21:18:17.810Z,-2.80
2019-02-05T21:28:28.774Z,-2.80
2019-02-05T21:33:34.399Z,-2.80
2019-02-05T21:38:40.415Z,-2.80
2019-02-05T21:43:46.126Z,-2.80
2019-02-05T21:48:51.736Z,-2.80
2019-02-05T21:53:57.292Z,-2.80
2019-02-05T22:04:10.079Z,-2.80
2019-02-05T22:09:15.190Z,-2.90
2019-02-05T22:14:20.712Z,-2.90
2019-02-05T22:24:30.659Z,-2.90
2019-02-05T22:34:42.407Z,-2.90
2019-02-05T22:39:48.075Z,-3.00
2019-02-05T22:44:54.280Z,-3.10
2019-02-05T22:49:59.906Z,-3.10
2019-02-05T22:55:06.148Z,-3.20
2019-02-05T23:00:50.614Z,-3.10
2019-02-05T23:12:13.485Z,-3.10
2019-02-05T23:17:20.282Z,-3.10
2019-02-05T23:22:25.872Z,-3.10
2019-02-05T23:27:31.295Z,-3.10
2019-02-05T23:32:36.636Z,-3.10
2019-02-05T23:37:41.991Z,-3.20
2019-02-05T23:42:47.351Z,-3.10
2019-02-05T23:47:52.683Z,-3.10
2019-02-05T23:52:58.468Z,-3.10
2019-02-05T23:58:03.743Z,-3.10
